Time;durP1;ratioP1;P1;durP2;ratioP2;P2;SDS_P1;SDS_P2;PMS_P1;PMS_P2;Temp;Humidity;BMP_temperature;BMP_pressure;BME280_temperature;BME280_humidity;BME280_pressure;Samples;Min_cycle;Max_cycle;Signal;HPM_P1;HPM_P2
2022/01/17 00:00:15;;;;;;;137.10;71.22;;;38.50;2201.60;;;;;;5004771;28;20033;-78
2022/01/17 00:02:41;;;;;;;124.70;68.30;;;38.50;2201.60;;;;;;5011215;28;20034;-73
2022/01/17 00:05:08;;;;;;;119.80;67.35;;;38.40;2201.60;;;;;;4993740;28;20092;-74
2022/01/17 00:07:35;;;;;;;130.73;70.00;;;13.70;2201.60;;;;;;4993242;28;20556;-74
2022/01/17 00:10:01;;;;;;;132.30;73.43;;;13.70;2201.60;;;;;;4985704;28;20049;-73
2022/01/17 00:12:28;;;;;;;129.13;69.35;;;13.60;2201.60;;;;;;4987005;28;20489;-74
2022/01/17 00:14:56;;;;;;;135.30;72.28;;;13.50;2201.60;;;;;;4996427;28;20872;-73
2022/01/17 00:19:53;;;;;;;125.55;67.20;;;13.50;2201.60;;;;;;5008617;28;20470;-73
2022/01/17 00:22:20;;;;;;;130.25;74.80;;;13.40;2201.60;;;;;;5000746;28;20042;-73
2022/01/17 00:24:46;;;;;;;134.65;69.88;;;13.50;2201.60;;;;;;4994991;28;20088;-73
2022/01/17 00:27:13;;;;;;;122.63;67.00;;;13.40;2201.60;;;;;;4995811;28;20037;-73
2022/01/17 00:29:40;;;;;;;140.43;70.35;;;13.50;2201.60;;;;;;4992476;28;20045;-74
2022/01/17 00:32:06;;;;;;;131.60;70.72;;;13.50;2201.60;;;;;;5011238;28;20050;-74
2022/01/17 00:34:32;;;;;;;138.93;72.05;;;13.40;2201.60;;;;;;5011603;28;20037;-73
2022/01/17 00:36:58;;;;;;;134.27;71.55;;;13.40;2201.60;;;;;;4988575;28;20128;-72
2022/01/17 00:39:24;;;;;;;128.70;74.00;;;13.40;2201.60;;;;;;5003594;28;20065;-73
2022/01/17 00:41:50;;;;;;;135.55;75.18;;;13.40;2201.60;;;;;;5007037;28;20065;-73
2022/01/17 00:44:23;;;;;;;153.85;87.47;;;13.40;2201.60;;;;;;5004725;28;20077;-73
2022/01/17 00:46:50;;;;;;;148.57;76.70;;;13.40;2201.60;;;;;;5012578;28;20044;-73
2022/01/17 00:49:16;;;;;;;136.43;77.25;;;13.40;2201.60;;;;;;5000232;28;20413;-72
2022/01/17 00:51:43;;;;;;;125.13;73.72;;;13.50;2201.60;;;;;;4999650;28;20062;-73
2022/01/17 00:54:09;;;;;;;126.07;69.28;;;13.60;2201.60;;;;;;4992599;28;20088;-73
2022/01/17 00:56:35;;;;;;;124.95;65.82;;;13.60;2201.60;;;;;;5003548;28;20084;-73
2022/01/17 00:59:00;;;;;;;138.98;75.03;;;13.60;2201.60;;;;;;5008821;28;20038;-73
2022/01/17 01:01:26;;;;;;;124.18;69.13;;;13.70;2201.60;;;;;;5013368;28;20034;-73
2022/01/17 01:03:52;;;;;;;110.95;63.33;;;13.70;2201.60;;;;;;5012965;28;20044;-73
2022/01/17 01:06:18;;;;;;;126.32;69.07;;;13.70;2201.60;;;;;;5010633;28;20033;-72
2022/01/17 01:08:44;;;;;;;117.50;63.70;;;13.70;2201.60;;;;;;4995044;28;20038;-73
2022/01/17 01:11:10;;;;;;;123.85;66.80;;;38.40;2201.60;;;;;;5011310;28;20053;-73
2022/01/17 01:13:36;;;;;;;113.20;59.65;;;38.40;2201.60;;;;;;4995442;28;20069;-73
2022/01/17 01:29:31;;;;;;;123.88;65.85;;;38.50;2201.60;;;;;;5004790;28;20037;-72
2022/01/17 01:32:05;;;;;;;120.50;65.82;;;38.50;2201.60;;;;;;4995082;28;20125;-73
2022/01/17 01:34:38;;;;;;;131.75;66.90;;;38.50;2201.60;;;;;;5012880;28;20061;-73
2022/01/17 01:37:04;;;;;;;137.02;67.55;;;38.40;2201.60;;;;;;5012779;28;20044;-73
2022/01/17 01:39:31;;;;;;;134.38;68.93;;;13.70;2201.60;;;;;;4995374;28;20033;-72
2022/01/17 01:41:58;;;;;;;142.77;73.55;;;13.70;2201.60;;;;;;5012605;28;20033;-72
2022/01/17 01:44:26;;;;;;;160.23;76.28;;;13.70;2201.60;;;;;;5012857;28;20022;-72
2022/01/17 01:46:53;;;;;;;168.45;81.72;;;38.40;2201.60;;;;;;4994794;28;20026;-72
2022/01/17 01:49:20;;;;;;;172.23;79.65;;;38.40;2201.60;;;;;;5012631;28;20037;-72
2022/01/17 01:51:46;;;;;;;150.15;77.32;;;13.70;2201.60;;;;;;4994899;28;20463;-72
2022/01/17 01:54:13;;;;;;;144.90;77.18;;;13.70;2201.60;;;;;;5011954;28;20033;-73
2022/01/17 01:56:43;;;;;;;182.93;84.95;;;13.70;2201.60;;;;;;5012705;28;20418;-73
2022/01/17 01:59:09;;;;;;;165.98;82.32;;;13.70;2201.60;;;;;;4994608;28;20069;-73
2022/01/17 02:01:35;;;;;;;176.63;83.72;;;13.70;2201.60;;;;;;4995153;28;20057;-73
2022/01/17 02:04:01;;;;;;;152.55;81.00;;;38.40;2201.60;;;;;;4994436;28;20072;-73
2022/01/17 02:06:27;;;;;;;161.18;82.90;;;13.70;2201.60;;;;;;5012328;28;20034;-72
2022/01/17 02:08:53;;;;;;;139.02;70.35;;;13.70;2201.60;;;;;;4994431;28;20384;-72
2022/01/17 02:11:19;;;;;;;146.93;73.68;;;13.70;2201.60;;;;;;5011108;28;20034;-72
2022/01/17 02:13:46;;;;;;;148.32;73.00;;;13.70;2201.60;;;;;;5012049;28;20030;-72
2022/01/17 02:16:14;;;;;;;151.05;76.32;;;13.70;2201.60;;;;;;4994408;28;20037;-72
2022/01/17 02:18:45;;;;;;;153.20;77.53;;;13.70;2201.60;;;;;;5011131;28;20034;-72
2022/01/17 02:23:43;;;;;;;117.07;64.70;;;13.70;2201.60;;;;;;5012355;28;20388;-72
2022/01/17 02:26:09;;;;;;;137.60;65.97;;;13.70;2201.60;;;;;;5011764;28;20044;-72
2022/01/17 02:28:36;;;;;;;133.13;66.82;;;13.70;2201.60;;;;;;4993570;28;20048;-72
2022/01/17 02:31:04;;;;;;;132.73;67.18;;;13.60;2201.60;;;;;;5011898;28;20029;-72
2022/01/17 02:33:32;;;;;;;137.15;71.78;;;13.60;2201.60;;;;;;4994051;28;20037;-72
2022/01/17 02:35:58;;;;;;;135.68;72.72;;;13.70;2201.60;;;;;;4994407;28;20056;-72
2022/01/17 02:38:24;;;;;;;139.60;75.30;;;13.60;2201.60;;;;;;5010994;28;20038;-72
2022/01/17 02:40:50;;;;;;;133.00;72.57;;;13.60;2201.60;;;;;;5012010;28;20485;-72
2022/01/17 02:43:18;;;;;;;137.45;66.63;;;13.50;2201.60;;;;;;4994094;28;20512;-72
2022/01/17 02:48:21;;;;;;;122.43;64.00;;;13.60;2201.60;;;;;;5011810;28;20405;-71
2022/01/17 02:50:48;;;;;;;128.85;65.75;;;13.60;2201.60;;;;;;5011500;28;20030;-71
2022/01/17 02:53:14;;;;;;;142.55;68.10;;;13.50;2201.60;;;;;;4993726;28;20398;-71
2022/01/17 02:55:50;;;;;;;133.25;67.75;;;13.50;2201.60;;;;;;4992773;28;20057;-72
2022/01/17 02:58:19;;;;;;;123.90;64.60;;;13.50;2201.60;;;;;;5011125;28;20432;-73
2022/01/17 03:00:45;;;;;;;114.38;61.65;;;13.50;2201.60;;;;;;4993134;28;20109;-72
2022/01/17 03:03:16;;;;;;;122.20;64.93;;;13.50;2201.60;;;;;;4993577;28;20092;-72
2022/01/17 03:05:42;;;;;;;124.55;62.00;;;13.60;2201.60;;;;;;5020172;28;20072;-72
2022/01/17 03:08:08;;;;;;;118.15;62.83;;;13.60;2201.60;;;;;;5012312;28;20042;-73
2022/01/17 03:10:40;;;;;;;112.10;62.47;;;13.60;2201.60;;;;;;5013153;28;20044;-72
2022/01/17 03:13:14;;;;;;;115.65;59.95;;;13.60;2201.60;;;;;;5012731;28;20052;-72
2022/01/17 03:15:41;;;;;;;109.18;57.10;;;13.50;2201.60;;;;;;5030495;28;20053;-72
2022/01/17 03:18:07;;;;;;;105.80;56.30;;;13.50;2201.60;;;;;;5030120;28;20545;-72
2022/01/17 03:20:34;;;;;;;101.00;55.63;;;13.50;2201.60;;;;;;5013393;28;20041;-72
2022/01/17 03:23:00;;;;;;;104.55;58.00;;;13.50;2201.60;;;;;;5031013;28;20038;-72
2022/01/17 03:25:26;;;;;;;102.05;54.95;;;13.50;2201.60;;;;;;5012967;28;20046;-72
2022/01/17 03:27:52;;;;;;;100.78;56.17;;;13.40;2201.60;;;;;;5031311;28;20029;-72
2022/01/17 03:30:18;;;;;;;97.85;55.58;;;13.40;2201.60;;;;;;5030834;28;20064;-72
2022/01/17 03:32:44;;;;;;;102.00;55.90;;;13.50;2201.60;;;;;;5030993;28;20116;-73
2022/01/17 03:35:10;;;;;;;111.97;61.00;;;13.50;2201.60;;;;;;5030651;28;20032;-72
2022/01/17 03:37:36;;;;;;;114.70;62.58;;;13.40;2201.60;;;;;;5031385;28;20030;-72
2022/01/17 03:40:03;;;;;;;118.32;67.22;;;13.40;2201.60;;;;;;5030691;28;20033;-72
2022/01/17 03:42:29;;;;;;;104.20;60.00;;;13.30;2201.60;;;;;;5031110;28;20796;-72
2022/01/17 03:44:54;;;;;;;113.78;65.60;;;13.30;2201.60;;;;;;5013050;28;20041;-72
2022/01/17 03:47:20;;;;;;;124.57;66.72;;;13.30;2201.60;;;;;;5031173;28;20362;-72
2022/01/17 03:49:46;;;;;;;112.80;62.03;;;13.30;2201.60;;;;;;5014289;28;20038;-72
2022/01/17 03:52:12;;;;;;;123.88;69.15;;;13.20;2201.60;;;;;;5034400;28;20029;-71
2022/01/17 03:54:38;;;;;;;123.45;68.57;;;13.20;2201.60;;;;;;5016894;28;20049;-72
2022/01/17 03:57:04;;;;;;;120.35;62.40;;;13.10;2201.60;;;;;;5034398;28;20117;-72
2022/01/17 03:59:30;;;;;;;117.43;63.42;;;13.10;2201.60;;;;;;5016919;28;20041;-72
2022/01/17 04:01:56;;;;;;;112.30;64.22;;;13.00;2201.60;;;;;;5016203;28;20061;-73
2022/01/17 04:04:21;;;;;;;112.38;61.75;;;13.00;2201.60;;;;;;5015477;28;20072;-72
2022/01/17 04:06:47;;;;;;;107.75;64.28;;;12.90;2201.60;;;;;;4995663;28;20049;-73
2022/01/17 04:09:13;;;;;;;113.47;63.17;;;12.90;2201.60;;;;;;5010034;28;20034;-75
2022/01/17 04:11:39;;;;;;;113.68;64.63;;;12.90;2201.60;;;;;;4994782;28;20034;-72
2022/01/17 04:14:06;;;;;;;111.10;62.00;;;12.90;2201.60;;;;;;4994957;28;20037;-72
2022/01/17 04:16:33;;;;;;;113.50;60.35;;;12.90;2201.60;;;;;;4994451;28;20065;-73
2022/01/17 04:18:59;;;;;;;114.55;61.00;;;0.00;2201.60;;;;;;4994512;28;20062;-72
2022/01/17 04:21:30;;;;;;;107.90;61.70;;;0.00;2201.60;;;;;;5009985;28;20444;-73
2022/01/17 04:23:56;;;;;;;115.80;61.00;;;0.00;2201.60;;;;;;4994473;28;20031;-73
2022/01/17 04:26:22;;;;;;;106.85;60.63;;;0.10;2201.60;;;;;;4994522;28;20481;-72
2022/01/17 04:28:47;;;;;;;112.53;59.83;;;0.10;2201.60;;;;;;4993006;28;20070;-72
2022/01/17 04:31:13;;;;;;;105.20;56.25;;;0.10;2201.60;;;;;;4997215;28;20026;-73
2022/01/17 04:33:39;;;;;;;103.15;58.53;;;0.20;2201.60;;;;;;4994320;28;20030;-73
2022/01/17 04:36:07;;;;;;;106.07;60.58;;;0.20;1945.60;;;;;;5006831;28;20041;-73
2022/01/17 04:38:34;;;;;;;110.65;61.30;;;0.20;1971.20;;;;;;4996038;28;20777;-72
2022/01/17 04:41:11;;;;;;;111.78;62.45;;;0.20;1920.00;;;;;;5013844;28;20092;-72
2022/01/17 04:46:04;;;;;;;118.65;67.82;;;0.20;1945.60;;;;;;5013383;28;20404;-73
2022/01/17 04:48:30;;;;;;;115.45;65.35;;;0.20;1971.20;;;;;;4995653;28;20036;-73
2022/01/17 04:50:58;;;;;;;110.22;61.40;;;0.20;1894.40;;;;;;5013229;28;20393;-73
2022/01/17 04:53:28;;;;;;;108.10;59.80;;;0.30;1996.80;;;;;;4995430;28;20057;-73
2022/01/17 04:55:54;;;;;;;109.18;57.97;;;0.30;1868.80;;;;;;5020909;28;20081;-73
2022/01/17 04:58:20;;;;;;;116.75;61.15;;;0.20;1971.20;;;;;;5011514;28;20076;-73
2022/01/17 05:00:47;;;;;;;100.80;59.33;;;0.30;2201.60;;;;;;5000460;28;20069;-74
2022/01/17 05:03:21;;;;;;;98.57;57.28;;;0.30;1817.60;;;;;;4991573;28;20038;-74
2022/01/17 05:05:47;;;;;;;95.82;55.28;;;0.40;2201.60;;;;;;5000847;28;20033;-73
2022/01/17 05:08:14;;;;;;;105.80;57.30;;;0.40;2201.60;;;;;;5011214;28;20448;-73
2022/01/17 05:10:42;;;;;;;105.22;55.70;;;0.50;2201.60;;;;;;4993541;28;20034;-74
2022/01/17 05:13:10;;;;;;;101.03;55.13;;;0.50;2201.60;;;;;;5011401;28;20061;-73
2022/01/17 05:15:43;;;;;;;91.30;49.10;;;0.70;2201.60;;;;;;4993892;28;20034;-73
2022/01/17 05:18:24;;;;;;;87.97;52.33;;;0.80;2201.60;;;;;;4989838;28;20038;-73
2022/01/17 05:20:50;;;;;;;85.97;51.17;;;25.60;2201.60;;;;;;4990089;28;20030;-73
2022/01/17 05:23:16;;;;;;;89.13;51.55;;;25.70;2201.60;;;;;;4974219;28;20405;-73
2022/01/17 05:25:42;;;;;;;84.95;47.10;;;25.80;2201.60;;;;;;5009776;28;20034;-74
2022/01/17 05:28:08;;;;;;;86.93;48.63;;;25.80;2201.60;;;;;;4998201;28;20636;-72
2022/01/17 05:30:34;;;;;;;79.53;45.53;;;26.00;2201.60;;;;;;4993654;28;20045;-72
2022/01/17 05:32:59;;;;;;;85.13;44.90;;;26.00;2201.60;;;;;;5011918;28;20058;-72
2022/01/17 05:35:26;;;;;;;90.25;51.13;;;26.10;2201.60;;;;;;4994411;28;20485;-72
2022/01/17 05:37:51;;;;;;;89.65;50.60;;;26.20;2201.60;;;;;;5011726;28;20037;-71
2022/01/17 05:40:18;;;;;;;78.00;47.85;;;26.30;2201.60;;;;;;5011971;28;20037;-73
2022/01/17 05:42:44;;;;;;;85.22;47.65;;;26.30;2201.60;;;;;;5011764;28;20038;-72
2022/01/17 05:45:12;;;;;;;95.75;53.75;;;26.40;2201.60;;;;;;4994215;28;20030;-73
2022/01/17 05:47:38;;;;;;;72.43;44.45;;;26.30;2201.60;;;;;;4993872;28;20037;-74
2022/01/17 05:50:05;;;;;;;75.60;43.83;;;26.30;2201.60;;;;;;5012137;28;20567;-74
2022/01/17 05:52:32;;;;;;;77.90;46.00;;;26.40;2201.60;;;;;;4994019;28;20044;-74
2022/01/17 05:54:59;;;;;;;87.68;44.20;;;26.40;2201.60;;;;;;4970548;28;1197481;-74
2022/01/17 05:57:25;;;;;;;79.10;45.03;;;26.50;2201.60;;;;;;5005724;28;20042;-73
2022/01/17 05:59:51;;;;;;;88.75;46.63;;;26.40;2201.60;;;;;;5011084;28;20034;-73
2022/01/17 06:02:17;;;;;;;72.65;40.95;;;26.40;2201.60;;;;;;5012582;28;20098;-75
2022/01/17 06:04:43;;;;;;;80.30;43.97;;;26.40;2201.60;;;;;;5010977;28;20037;-74
2022/01/17 06:07:09;;;;;;;82.00;46.90;;;26.40;2201.60;;;;;;4993026;28;20026;-73
2022/01/17 06:09:35;;;;;;;73.43;40.42;;;26.40;2201.60;;;;;;4992455;28;20038;-73
2022/01/17 06:12:02;;;;;;;92.47;47.63;;;26.40;2201.60;;;;;;4991486;28;20089;-74
2022/01/17 06:14:27;;;;;;;87.57;50.45;;;26.40;2201.60;;;;;;4992428;28;20038;-73
2022/01/17 06:16:53;;;;;;;89.18;50.30;;;26.40;2201.60;;;;;;4992936;28;20035;-73
2022/01/17 06:19:19;;;;;;;72.68;41.40;;;26.50;2201.60;;;;;;4992502;28;20034;-73
2022/01/17 06:21:45;;;;;;;68.05;40.22;;;51.20;2227.20;;;;;;4992902;28;20034;-73
2022/01/17 06:24:11;;;;;;;73.90;40.83;;;51.20;2227.20;;;;;;4992453;28;20030;-74
2022/01/17 06:26:39;;;;;;;92.43;51.10;;;51.20;2227.20;;;;;;4990534;28;20053;-73
2022/01/17 06:29:06;;;;;;;86.45;43.17;;;51.30;2227.20;;;;;;5004809;28;20022;-73
2022/01/17 06:31:33;;;;;;;78.00;45.33;;;51.40;2227.20;;;;;;5011397;28;20022;-73
2022/01/17 06:33:59;;;;;;;87.45;47.33;;;51.40;2227.20;;;;;;4976806;28;20042;-73
2022/01/17 06:36:25;;;;;;;70.72;40.38;;;51.40;2227.20;;;;;;5006760;28;20088;-73
2022/01/17 06:38:51;;;;;;;71.22;40.63;;;51.40;2227.20;;;;;;4993949;28;20058;-73
2022/01/17 06:41:20;;;;;;;77.65;42.92;;;51.50;2227.20;;;;;;5010262;28;20038;-74
2022/01/17 06:43:47;;;;;;;76.30;43.17;;;51.60;2227.20;;;;;;4994404;28;20042;-73
2022/01/17 06:46:12;;;;;;;65.65;39.80;;;51.60;2227.20;;;;;;4993916;28;20037;-72
2022/01/17 06:48:39;;;;;;;75.95;43.13;;;51.70;2227.20;;;;;;4993676;28;20038;-73
2022/01/17 06:51:05;;;;;;;91.18;48.25;;;51.70;2227.20;;;;;;5011772;28;20056;-73
2022/01/17 06:53:31;;;;;;;82.70;45.70;;;51.70;2227.20;;;;;;5011586;28;20473;-73
2022/01/17 06:55:57;;;;;;;125.65;65.25;;;51.80;2227.20;;;;;;5011211;28;20125;-74
2022/01/17 06:58:23;;;;;;;129.88;61.83;;;51.80;2227.20;;;;;;5002576;28;20126;-74
2022/01/17 07:00:49;;;;;;;74.53;43.42;;;51.80;2227.20;;;;;;4999180;28;20058;-73
2022/01/17 07:03:15;;;;;;;81.38;41.05;;;51.90;2227.20;;;;;;5011231;28;20030;-73
2022/01/17 07:05:42;;;;;;;64.07;36.28;;;52.00;2227.20;;;;;;5011398;28;20038;-74
2022/01/17 07:08:08;;;;;;;60.28;35.42;;;52.00;2227.20;;;;;;5008446;28;20040;-74
2022/01/17 07:10:33;;;;;;;62.50;37.30;;;52.10;2227.20;;;;;;4993117;28;20085;-73
2022/01/17 07:12:59;;;;;;;67.80;36.40;;;52.10;2227.20;;;;;;5010831;28;20057;-73
2022/01/17 07:15:25;;;;;;;61.03;37.50;;;76.80;2227.20;;;;;;5011015;28;20033;-73
2022/01/17 07:17:51;;;;;;;66.22;40.47;;;76.80;2227.20;;;;;;5000414;28;20038;-74
2022/01/17 07:20:17;;;;;;;79.53;45.85;;;76.90;2227.20;;;;;;5005768;28;20099;-73
2022/01/17 07:22:43;;;;;;;67.03;39.35;;;76.90;2227.20;;;;;;5006989;28;20030;-74
2022/01/17 07:25:10;;;;;;;66.97;41.30;;;77.00;2227.20;;;;;;5005009;28;20033;-74
2022/01/17 07:27:36;;;;;;;90.05;51.97;;;77.00;2227.20;;;;;;4990598;28;20042;-72
2022/01/17 07:30:07;;;;;;;80.55;44.88;;;77.10;2227.20;;;;;;5012019;28;20030;-73
2022/01/17 07:32:33;;;;;;;66.43;39.88;;;77.20;2227.20;;;;;;5014498;28;20050;-72
2022/01/17 07:34:59;;;;;;;52.70;31.55;;;77.20;2227.20;;;;;;4993588;28;20037;-74
2022/01/17 07:37:25;;;;;;;54.10;27.77;;;77.30;2227.20;;;;;;5014818;28;20034;-74
2022/01/17 07:39:50;;;;;;;51.30;31.15;;;77.40;2227.20;;;;;;5015216;28;20053;-73
2022/01/17 07:42:16;;;;;;;52.45;31.58;;;77.40;2227.20;;;;;;4996607;28;20492;-74
2022/01/17 07:44:44;;;;;;;52.85;30.13;;;77.50;2227.20;;;;;;4997009;28;20120;-76
2022/01/17 07:47:17;;;;;;;52.47;31.23;;;77.60;2227.20;;;;;;5009910;28;20042;-72
2022/01/17 07:49:45;;;;;;;44.25;28.63;;;77.70;2227.20;;;;;;4997097;28;20053;-72
2022/01/17 07:52:11;;;;;;;47.72;30.27;;;77.70;2227.20;;;;;;5011315;28;20030;-74
2022/01/17 07:54:43;;;;;;;44.65;28.42;;;102.40;2227.20;;;;;;5011410;28;20046;-74
2022/01/17 07:57:10;;;;;;;46.20;29.52;;;102.40;2227.20;;;;;;5010018;28;20030;-74
2022/01/17 07:59:36;;;;;;;46.42;31.00;;;102.50;2227.20;;;;;;4990132;28;20034;-74
2022/01/17 08:02:02;;;;;;;49.05;28.27;;;102.60;2227.20;;;;;;5009798;28;20374;-74
2022/01/17 08:04:29;;;;;;;54.03;32.83;;;102.60;2227.20;;;;;;5013819;28;20038;-74
2022/01/17 08:06:55;;;;;;;52.10;29.77;;;102.70;2227.20;;;;;;4996295;28;20034;-74
2022/01/17 08:09:30;;;;;;;51.65;32.53;;;102.80;2227.20;;;;;;4980200;28;20113;-74
2022/01/17 08:11:57;;;;;;;51.05;32.72;;;102.80;2227.20;;;;;;4993385;28;20041;-74
2022/01/17 08:14:24;;;;;;;50.90;31.25;;;102.90;2227.20;;;;;;4993389;28;20030;-78
2022/01/17 08:16:51;;;;;;;50.63;30.90;;;102.90;2227.20;;;;;;5010931;28;20045;-73
2022/01/17 08:19:17;;;;;;;49.03;30.23;;;103.00;2227.20;;;;;;4996912;28;20052;-75
2022/01/17 08:21:43;;;;;;;49.50;32.33;;;103.10;2227.20;;;;;;4996358;28;20038;-74
2022/01/17 08:24:09;;;;;;;51.20;32.33;;;103.20;2227.20;;;;;;5013126;28;20034;-73
2022/01/17 08:26:37;;;;;;;54.85;33.67;;;103.20;2227.20;;;;;;5013260;28;20100;-73
2022/01/17 08:29:03;;;;;;;50.63;32.72;;;103.20;2227.20;;;;;;5002896;28;20054;-75
2022/01/17 08:31:28;;;;;;;51.33;32.47;;;103.20;2227.20;;;;;;4995998;28;20072;-73
2022/01/17 08:33:54;;;;;;;53.33;32.40;;;103.30;2227.20;;;;;;5013410;28;20465;-73
2022/01/17 08:36:20;;;;;;;53.53;33.85;;;128.00;2252.80;;;;;;5009745;28;20041;-73
2022/01/17 08:38:47;;;;;;;44.33;28.08;;;128.20;2252.80;;;;;;5014041;28;20041;-74
2022/01/17 08:41:13;;;;;;;48.40;30.27;;;128.30;2252.80;;;;;;5013474;28;20030;-74
2022/01/17 08:43:39;;;;;;;48.35;31.13;;;128.60;2252.80;;;;;;4995771;28;20088;-76
2022/01/17 08:46:06;;;;;;;42.15;27.02;;;153.60;2252.80;;;;;;4996356;28;20129;-74
2022/01/17 08:48:32;;;;;;;38.70;26.30;;;153.90;2252.80;;;;;;4997506;28;20038;-75
2022/01/17 08:50:58;;;;;;;38.40;27.52;;;154.00;2252.80;;;;;;5013697;28;20030;-77
2022/01/17 08:53:24;;;;;;;38.78;25.73;;;154.10;2252.80;;;;;;5009107;28;20109;-76
2022/01/17 08:55:50;;;;;;;53.50;31.70;;;154.10;2252.80;;;;;;5005111;28;20133;-76
2022/01/17 08:58:16;;;;;;;44.67;28.88;;;154.20;2252.80;;;;;;5007137;28;20506;-76
2022/01/17 09:00:45;;;;;;;38.30;26.23;;;154.30;2252.80;;;;;;5006170;28;20045;-75
2022/01/17 09:03:10;;;;;;;41.95;26.33;;;154.40;2252.80;;;;;;5009696;28;20552;-75
2022/01/17 09:05:36;;;;;;;39.25;26.98;;;154.40;2252.80;;;;;;5012162;28;20121;-75
2022/01/17 09:08:04;;;;;;;43.65;27.77;;;179.20;2252.80;;;;;;4995574;28;20040;-74
2022/01/17 09:10:30;;;;;;;45.25;25.40;;;154.50;2252.80;;;;;;4995214;28;20030;-74
2022/01/17 09:12:59;;;;;;;40.22;27.73;;;154.40;2252.80;;;;;;5013491;28;20038;-74
2022/01/17 09:15:25;;;;;;;41.40;26.58;;;154.40;2252.80;;;;;;5012537;28;20436;-75
2022/01/17 09:17:51;;;;;;;39.25;27.10;;;154.40;2252.80;;;;;;4995490;28;20037;-74
2022/01/17 09:20:17;;;;;;;41.20;28.70;;;154.30;2252.80;;;;;;5013131;28;20127;-74
2022/01/17 09:22:42;;;;;;;45.08;29.33;;;154.30;2252.80;;;;;;5012707;28;20104;-74
2022/01/17 09:25:09;;;;;;;49.50;30.45;;;154.20;2252.80;;;;;;5011786;28;20049;-76
2022/01/17 09:27:38;;;;;;;48.22;29.92;;;154.20;2252.80;;;;;;4994553;28;20038;-77
2022/01/17 09:30:07;;;;;;;51.28;31.83;;;154.20;2252.80;;;;;;5007709;28;20038;-76
2022/01/17 09:32:33;;;;;;;41.35;29.02;;;154.20;2252.80;;;;;;5011163;28;20296;-76
2022/01/17 09:34:59;;;;;;;52.28;32.25;;;154.10;2252.80;;;;;;5012213;28;20520;-75
2022/01/17 09:37:25;;;;;;;48.38;30.48;;;154.10;2252.80;;;;;;5012349;28;20080;-77
2022/01/17 09:39:51;;;;;;;54.53;34.83;;;154.10;2252.80;;;;;;5008992;28;20038;-78
2022/01/17 09:42:17;;;;;;;47.20;31.33;;;154.10;2252.80;;;;;;5011740;28;20036;-76
2022/01/17 09:44:43;;;;;;;97.32;54.72;;;154.10;2252.80;;;;;;5012322;28;20045;-76
2022/01/17 09:47:11;;;;;;;61.47;37.75;;;154.00;2252.80;;;;;;5005170;28;20034;-76
2022/01/17 09:49:50;;;;;;;48.17;30.13;;;153.90;2252.80;;;;;;4995075;28;20120;-76
2022/01/17 09:54:53;;;;;;;41.47;26.20;;;154.00;2252.80;;;;;;5012262;28;20088;-76
2022/01/17 09:57:21;;;;;;;55.03;35.00;;;154.10;2252.80;;;;;;4995307;28;20072;-79
2022/01/17 09:59:47;;;;;;;47.80;31.27;;;154.10;2252.80;;;;;;5012053;28;20101;-76
2022/01/17 10:02:13;;;;;;;43.30;28.52;;;154.20;2252.80;;;;;;4994149;28;20129;-78
2022/01/17 10:04:40;;;;;;;74.47;45.35;;;154.30;2252.80;;;;;;5011396;28;20620;-78
2022/01/17 10:07:07;;;;;;;45.85;30.17;;;154.30;2252.80;;;;;;4993081;28;20042;-77
2022/01/17 10:09:34;;;;;;;46.08;29.42;;;154.30;2252.80;;;;;;4994969;28;20068;-77
2022/01/17 10:12:03;;;;;;;70.50;41.13;;;154.30;2252.80;;;;;;4994659;28;20129;-77
2022/01/17 10:14:35;;;;;;;81.25;43.03;;;154.30;2252.80;;;;;;4994829;28;20088;-75
2022/01/17 10:17:15;;;;;;;50.05;29.33;;;154.40;2252.80;;;;;;4994343;28;20484;-76
2022/01/17 10:19:42;;;;;;;47.17;28.10;;;154.40;2252.80;;;;;;4994032;28;20087;-77
2022/01/17 10:22:14;;;;;;;44.15;24.98;;;154.40;2252.80;;;;;;4993822;28;20125;-75
2022/01/17 10:24:48;;;;;;;49.47;28.42;;;154.40;2252.80;;;;;;4993726;28;20038;-76
2022/01/17 10:27:53;;;;;;;57.33;32.55;;;154.40;2252.80;;;;;;4994875;28;20149;-75
2022/01/17 10:35:52;;;;;;;55.30;33.33;;;179.20;2252.80;;;;;;5011475;28;20064;-82
2022/01/17 10:38:23;;;;;;;73.25;37.05;;;179.30;2252.80;;;;;;5001800;28;20138;-77
2022/01/17 10:40:56;;;;;;;50.13;30.08;;;179.30;2252.80;;;;;;4994032;28;20036;-78
2022/01/17 10:43:27;;;;;;;44.83;24.38;;;179.40;2252.80;;;;;;5002001;28;20034;-79
2022/01/17 10:45:55;;;;;;;40.95;22.00;;;179.40;2252.80;;;;;;5009598;28;20042;-78
2022/01/17 10:48:29;;;;;;;40.50;25.17;;;179.50;2252.80;;;;;;4990585;28;20041;-78
2022/01/17 10:50:54;;;;;;;37.33;22.92;;;179.50;2252.80;;;;;;5010797;28;20034;-78
2022/01/17 10:53:20;;;;;;;31.75;19.88;;;179.50;2252.80;;;;;;4992411;28;20038;-78
2022/01/17 10:55:55;;;;;;;33.40;21.15;;;179.60;2252.80;;;;;;5010506;28;20046;-79
2022/01/17 10:58:32;;;;;;;27.48;18.25;;;179.70;2252.80;;;;;;5009499;28;20125;-78
2022/01/17 11:01:04;;;;;;;30.63;20.17;;;179.60;2252.80;;;;;;5013420;28;20026;-78
2022/01/17 11:03:32;;;;;;;36.58;22.83;;;179.60;2252.80;;;;;;5014596;28;20033;-78
2022/01/17 11:06:03;;;;;;;29.65;21.65;;;179.60;2252.80;;;;;;4996469;28;20045;-77
2022/01/17 11:08:32;;;;;;;36.47;21.80;;;179.60;2252.80;;;;;;5015098;28;20061;-78
2022/01/17 11:11:00;;;;;;;34.33;22.77;;;179.60;2252.80;;;;;;4996817;28;20816;-78
2022/01/17 11:13:31;;;;;;;34.88;22.90;;;179.70;2252.80;;;;;;4996544;28;20114;-78
2022/01/17 11:16:04;;;;;;;33.40;22.58;;;179.60;2252.80;;;;;;4988267;28;20479;-79
2022/01/17 11:18:31;;;;;;;35.85;24.80;;;179.50;2252.80;;;;;;4996044;28;20038;-78
2022/01/17 11:21:10;;;;;;;36.55;21.38;;;179.60;2252.80;;;;;;5003002;28;20489;-78
2022/01/17 11:23:37;;;;;;;41.78;24.60;;;179.60;2252.80;;;;;;5004159;28;20116;-80
2022/01/17 11:26:05;;;;;;;28.48;18.70;;;179.70;2252.80;;;;;;4995957;28;20093;-78
2022/01/17 11:28:36;;;;;;;39.83;25.00;;;179.70;2252.80;;;;;;5012522;28;20370;-76
2022/01/17 11:31:07;;;;;;;31.88;21.08;;;179.70;2252.80;;;;;;5014057;28;20037;-76
2022/01/17 11:33:34;;;;;;;28.02;17.13;;;179.70;2252.80;;;;;;4995865;28;20034;-77
2022/01/17 11:36:00;;;;;;;33.65;18.20;;;179.80;2252.80;;;;;;4996681;28;20038;-78
2022/01/17 11:38:39;;;;;;;27.42;17.98;;;179.80;2252.80;;;;;;5014725;28;20034;-79
2022/01/17 11:41:20;;;;;;;26.67;17.65;;;180.00;2252.80;;;;;;5014388;28;20425;-76
2022/01/17 11:43:55;;;;;;;35.13;19.00;;;180.10;2252.80;;;;;;5001437;28;20137;-80
2022/01/17 11:46:30;;;;;;;142.43;64.55;;;204.80;2252.80;;;;;;5011483;28;20041;-78
2022/01/17 11:49:07;;;;;;;139.88;62.90;;;204.80;2252.80;;;;;;5014612;28;20096;-79
2022/01/17 11:51:45;;;;;;;82.60;38.08;;;204.90;2252.80;;;;;;5014529;28;20042;-76
2022/01/17 11:54:24;;;;;;;81.95;38.40;;;205.00;2252.80;;;;;;5013939;28;20022;-79
2022/01/17 11:56:52;;;;;;;82.65;36.67;;;205.10;2252.80;;;;;;5014284;28;20505;-77
2022/01/17 11:59:34;;;;;;;89.03;38.20;;;205.10;2252.80;;;;;;5007586;28;20030;-78
2022/01/17 12:02:20;;;;;;;85.97;41.25;;;205.10;2252.80;;;;;;5013793;28;20065;-78
2022/01/17 12:05:07;;;;;;;91.55;46.58;;;205.30;2252.80;;;;;;5004377;28;20042;-79
2022/01/17 12:07:41;;;;;;;89.55;38.13;;;205.20;2252.80;;;;;;5002152;28;20038;-76
2022/01/17 12:10:09;;;;;;;67.93;34.58;;;205.30;2252.80;;;;;;5013699;28;20080;-77
2022/01/17 12:12:35;;;;;;;104.25;42.03;;;205.50;2252.80;;;;;;5013829;28;20112;-77
2022/01/17 12:15:06;;;;;;;76.18;32.45;;;205.60;2252.80;;;;;;4995337;28;20026;-76
2022/01/17 12:17:32;;;;;;;45.35;28.00;;;205.60;2252.80;;;;;;4991232;28;20062;-76
2022/01/17 12:20:07;;;;;;;43.17;26.00;;;205.70;2252.80;;;;;;4995623;28;20033;-77
2022/01/17 12:22:57;;;;;;;112.60;48.38;;;230.50;2252.80;;;;;;5014126;28;20026;-77
2022/01/17 12:25:32;;;;;;;110.70;47.75;;;230.50;2252.80;;;;;;4997733;28;20523;-76
2022/01/17 12:28:04;;;;;;;58.00;28.45;;;230.50;2252.80;;;;;;4993376;28;20125;-78
2022/01/17 12:30:49;;;;;;;103.18;45.83;;;230.40;2252.80;;;;;;4994590;28;20074;-76
2022/01/17 12:33:30;;;;;;;107.78;57.72;;;230.40;2252.80;;;;;;4994725;28;20033;-75
2022/01/17 12:35:59;;;;;;;174.25;89.55;;;230.50;2252.80;;;;;;5003441;28;20034;-76